Portada
METAR-TAF:

METAR-TAF

Aeroports :

Tongatapu, Tonga

latitud: 21-14S, longitud: 175-09W, altitud: 38 m

Observació

L'informe es va fer fa 32 minuts, a les 03:00 UTC
Vent 5 kt del Est/Sud-Est
Temperatura 24°C
Humitat 74%
Pressió 1015 hPa
Visibilitat 10 km o més
Escasses núvols a una alçada de 1200 ft
Núvols disperses a una alçada de 3500 ft
Cel ennuvolat a una alçada de 10000 ft
plugim

METAR: NFTF 240300Z 11005KT 9999 -DZ FEW012 SCT035 BKN100 24/19 Q1015

Hora: 16:32 (03:32 UTC)

Pronòstic

L'informe es va fer fa 4 hores i 12 minuts, a les 23:20 UTC
Pronòstic vàlid del 24 a les 00 UTC al 24 a les 24 UTC
Vent 8 kt del Est/Sud-Est
Visibilitat 10 km o més
Núvols disperses a una alçada de 1800 ft

TAF: NFTF 232320Z 2400/2424 12008KT 9999 SCT018

Observacions i pronòstics meteorològics de més de 4000 aeroports (METAR i TAF).

Les estacions disponibles són els punts grocs i vermells al mapa.

Posi el ratolí al punt desitjat per veure el nom de l'estació.

Feu clic per veure les observacions i els pronòstics meteorològics.

Per canviar el mapa: feu clic els botons verds amb una creu de color negre per apropar; al botó verd amb un guió per allunyar la imatge; o en les fletxes verdes per a mapes adjacents.


METAR-TAF: